HAZ607 ZSHC-VMMC
Flight info
| Callsign | HAZ607 |
|---|---|
| Flight time | 1h 51m |
| Altitude | 32100 |
| Route | ELN91D ELNEX A599 CON |
| Aircraft | A359/H-SDE2E3GHIJ3J4J5LM1ORWXY/LB1D1 |
Departure
| Time | 2026-04-24 01:36 |
|---|---|
| Airport | Hangzhou Xiaoshan International Airport (ZSHC) |
Arrival
| Time | 2026-04-24 03:28 |
|---|---|
| Airport | Macau International Airport (VMMC) |
| Time | Latitude | Longitude | Altitude | Speed | Heading |
|---|---|---|---|---|---|
| 2026-04-24 01:08 | 30.23750 | 120.42105 | 38 ft | 0 kts | 242° |
| 2026-04-24 01:28 | 30.23751 | 120.42108 | 38 ft | 2 kts | 242° |
| 2026-04-24 01:28 | 30.23763 | 120.42134 | 38 ft | 4 kts | 242° |
| 2026-04-24 01:28 | 30.23776 | 120.42161 | 37 ft | 3 kts | 242° |
| 2026-04-24 01:28 | 30.23785 | 120.42185 | 38 ft | 4 kts | 266° |
| 2026-04-24 01:29 | 30.23779 | 120.42212 | 38 ft | 4 kts | 314° |
| 2026-04-24 01:29 | 30.23758 | 120.42230 | 38 ft | 4 kts | 335° |
| 2026-04-24 01:29 | 30.23741 | 120.42239 | 38 ft | 0 kts | 333° |
| 2026-04-24 01:31 | 30.23743 | 120.42237 | 38 ft | 3 kts | 333° |
| 2026-04-24 01:32 | 30.23792 | 120.42208 | 38 ft | 11 kts | 333° |
| 2026-04-24 01:32 | 30.23869 | 120.42163 | 38 ft | 14 kts | 333° |
| 2026-04-24 01:32 | 30.23959 | 120.42107 | 38 ft | 13 kts | 319° |
| 2026-04-24 01:32 | 30.23962 | 120.42033 | 38 ft | 10 kts | 247° |
| 2026-04-24 01:33 | 30.23919 | 120.41936 | 38 ft | 18 kts | 243° |
| 2026-04-24 01:33 | 30.23867 | 120.41806 | 38 ft | 13 kts | 265° |
| 2026-04-24 01:33 | 30.23910 | 120.41735 | 38 ft | 11 kts | 292° |
| 2026-04-24 01:33 | 30.23885 | 120.41635 | 38 ft | 15 kts | 243° |
| 2026-04-24 01:34 | 30.23832 | 120.41516 | 37 ft | 18 kts | 243° |
| 2026-04-24 01:34 | 30.23772 | 120.41380 | 38 ft | 20 kts | 243° |
| 2026-04-24 01:34 | 30.23703 | 120.41226 | 38 ft | 23 kts | 243° |
| 2026-04-24 01:34 | 30.23627 | 120.41054 | 38 ft | 23 kts | 243° |
| 2026-04-24 01:35 | 30.23620 | 120.40969 | 38 ft | 10 kts | 305° |
| 2026-04-24 01:35 | 30.23703 | 120.40913 | 38 ft | 20 kts | 333° |
| 2026-04-24 01:35 | 30.23827 | 120.40877 | 40 ft | 16 kts | 29° |
| 2026-04-24 01:35 | 30.23895 | 120.40998 | 40 ft | 26 kts | 62° |
| 2026-04-24 01:36 | 30.24066 | 120.41386 | 38 ft | 90 kts | 63° |
| 2026-04-24 01:36 | 30.24456 | 120.42266 | 39 ft | 154 kts | 63° |
| 2026-04-24 01:36 | 30.24983 | 120.43443 | 602 ft | 166 kts | 62° |
| 2026-04-24 01:36 | 30.25503 | 120.44617 | 1509 ft | 160 kts | 62° |
| 2026-04-24 01:37 | 30.26022 | 120.45796 | 2151 ft | 172 kts | 62° |
| 2026-04-24 01:37 | 30.26576 | 120.47045 | 2820 ft | 175 kts | 61° |
| 2026-04-24 01:37 | 30.27090 | 120.48208 | 3440 ft | 180 kts | 61° |
| 2026-04-24 01:37 | 30.27643 | 120.49449 | 3804 ft | 199 kts | 61° |
| 2026-04-24 01:38 | 30.28302 | 120.50896 | 4397 ft | 206 kts | 58° |
| 2026-04-24 01:38 | 30.29216 | 120.52163 | 5055 ft | 210 kts | 37° |
| 2026-04-24 01:38 | 30.30524 | 120.52867 | 5801 ft | 210 kts | 11° |
| 2026-04-24 01:38 | 30.31987 | 120.52808 | 6565 ft | 213 kts | 345° |
| 2026-04-24 01:39 | 30.33276 | 120.51973 | 7320 ft | 218 kts | 319° |
| 2026-04-24 01:39 | 30.34115 | 120.50496 | 8076 ft | 225 kts | 292° |
| 2026-04-24 01:39 | 30.34533 | 120.48734 | 8874 ft | 228 kts | 284° |
| 2026-04-24 01:39 | 30.34539 | 120.46893 | 9587 ft | 236 kts | 258° |
| 2026-04-24 01:40 | 30.33909 | 120.45112 | 10283 ft | 247 kts | 245° |
| 2026-04-24 01:40 | 30.33069 | 120.43254 | 10636 ft | 273 kts | 244° |
| 2026-04-24 01:40 | 30.32152 | 120.41254 | 10999 ft | 297 kts | 244° |
| 2026-04-24 01:40 | 30.31161 | 120.39065 | 11387 ft | 319 kts | 244° |
| 2026-04-24 01:41 | 30.30104 | 120.36707 | 11843 ft | 337 kts | 244° |
| 2026-04-24 01:41 | 30.29013 | 120.34263 | 12578 ft | 344 kts | 245° |
| 2026-04-24 01:41 | 30.27909 | 120.31788 | 13426 ft | 347 kts | 245° |
| 2026-04-24 01:41 | 30.26797 | 120.29291 | 14279 ft | 350 kts | 245° |
| 2026-04-24 01:42 | 30.25680 | 120.26784 | 15103 ft | 352 kts | 245° |
| 2026-04-24 01:42 | 30.24920 | 120.25083 | 15695 ft | 353 kts | 245° |
| 2026-04-24 01:42 | 30.23431 | 120.21737 | 16790 ft | 355 kts | 245° |
| 2026-04-24 01:42 | 30.22301 | 120.19196 | 17621 ft | 356 kts | 245° |
| 2026-04-24 01:43 | 30.21551 | 120.17512 | 18130 ft | 357 kts | 245° |
| 2026-04-24 01:43 | 30.20419 | 120.14970 | 18927 ft | 357 kts | 245° |
| 2026-04-24 01:43 | 30.18912 | 120.11590 | 19961 ft | 359 kts | 245° |
| 2026-04-24 01:43 | 30.18128 | 120.09839 | 20459 ft | 361 kts | 245° |
| 2026-04-24 01:44 | 30.16970 | 120.07258 | 21203 ft | 362 kts | 245° |
| 2026-04-24 01:44 | 30.15808 | 120.04667 | 21901 ft | 365 kts | 245° |
| 2026-04-24 01:44 | 30.14636 | 120.02055 | 22593 ft | 367 kts | 245° |
| 2026-04-24 01:44 | 30.13460 | 119.99433 | 23301 ft | 369 kts | 245° |
| 2026-04-24 01:45 | 30.12273 | 119.96789 | 24015 ft | 370 kts | 245° |
| 2026-04-24 01:45 | 30.11080 | 119.94136 | 24672 ft | 373 kts | 245° |
| 2026-04-24 01:45 | 30.09882 | 119.91473 | 25363 ft | 374 kts | 245° |
| 2026-04-24 01:45 | 30.08686 | 119.88816 | 26073 ft | 374 kts | 245° |
| 2026-04-24 01:46 | 30.07486 | 119.86149 | 26729 ft | 374 kts | 245° |
| 2026-04-24 01:46 | 30.06280 | 119.83476 | 27340 ft | 376 kts | 245° |
| 2026-04-24 01:46 | 30.04979 | 119.80835 | 27885 ft | 381 kts | 241° |
| 2026-04-24 01:46 | 30.03354 | 119.78396 | 28329 ft | 389 kts | 233° |
| 2026-04-24 01:47 | 30.01331 | 119.76286 | 28966 ft | 398 kts | 225° |
| 2026-04-24 01:47 | 29.98963 | 119.74553 | 29536 ft | 407 kts | 218° |
| 2026-04-24 01:47 | 29.96459 | 119.73026 | 30044 ft | 410 kts | 217° |
| 2026-04-24 01:47 | 29.93913 | 119.71507 | 30563 ft | 411 kts | 217° |
| 2026-04-24 01:48 | 29.91370 | 119.69986 | 31076 ft | 413 kts | 217° |
| 2026-04-24 01:48 | 29.88805 | 119.68478 | 31532 ft | 416 kts | 214° |
| 2026-04-24 01:48 | 29.86087 | 119.67208 | 31961 ft | 427 kts | 208° |
| 2026-04-24 01:48 | 29.83150 | 119.66375 | 32188 ft | 443 kts | 200° |
| 2026-04-24 01:49 | 29.80057 | 119.66017 | 32230 ft | 448 kts | 195° |
| 2026-04-24 01:49 | 29.73827 | 119.65630 | 32228 ft | 449 kts | 194° |
| 2026-04-24 01:50 | 29.67593 | 119.65310 | 32233 ft | 449 kts | 194° |
| 2026-04-24 01:50 | 29.61346 | 119.64982 | 32229 ft | 450 kts | 194° |
| 2026-04-24 01:51 | 29.55082 | 119.64811 | 32223 ft | 450 kts | 193° |
| 2026-04-24 01:51 | 29.48848 | 119.64577 | 32228 ft | 446 kts | 194° |
| 2026-04-24 01:52 | 29.42654 | 119.64161 | 32230 ft | 446 kts | 195° |
| 2026-04-24 01:52 | 29.36520 | 119.63746 | 32230 ft | 445 kts | 195° |
| 2026-04-24 01:53 | 29.30362 | 119.63359 | 32223 ft | 445 kts | 194° |
| 2026-04-24 01:53 | 29.24161 | 119.62979 | 32218 ft | 445 kts | 194° |
| 2026-04-24 01:54 | 29.17982 | 119.62597 | 32224 ft | 444 kts | 194° |
| 2026-04-24 01:54 | 29.11811 | 119.62234 | 32214 ft | 444 kts | 194° |
| 2026-04-24 01:55 | 29.05654 | 119.61866 | 32215 ft | 443 kts | 194° |
| 2026-04-24 01:55 | 28.99509 | 119.61482 | 32219 ft | 442 kts | 194° |
| 2026-04-24 01:56 | 28.93375 | 119.61092 | 32223 ft | 440 kts | 194° |
| 2026-04-24 01:56 | 28.87274 | 119.60721 | 32218 ft | 439 kts | 194° |
| 2026-04-24 01:57 | 28.81193 | 119.60336 | 32220 ft | 438 kts | 194° |
| 2026-04-24 01:57 | 28.75113 | 119.59955 | 32224 ft | 438 kts | 195° |
| 2026-04-24 01:58 | 28.69025 | 119.59574 | 32214 ft | 437 kts | 194° |
| 2026-04-24 01:58 | 28.62968 | 119.59198 | 32197 ft | 436 kts | 194° |
| 2026-04-24 01:59 | 28.56917 | 119.58838 | 32211 ft | 434 kts | 194° |
| 2026-04-24 01:59 | 28.50902 | 119.58478 | 32215 ft | 433 kts | 194° |
| 2026-04-24 02:00 | 28.44879 | 119.58101 | 32213 ft | 433 kts | 194° |
| 2026-04-24 02:00 | 28.38853 | 119.57749 | 32213 ft | 434 kts | 194° |
| 2026-04-24 02:01 | 28.32846 | 119.57420 | 32211 ft | 432 kts | 194° |
| 2026-04-24 02:01 | 28.26829 | 119.57097 | 32197 ft | 432 kts | 194° |
| 2026-04-24 02:02 | 28.20836 | 119.56775 | 32200 ft | 432 kts | 194° |
| 2026-04-24 02:02 | 28.14820 | 119.56445 | 32202 ft | 432 kts | 194° |
| 2026-04-24 02:03 | 28.05806 | 119.56025 | 32198 ft | 435 kts | 192° |
| 2026-04-24 02:03 | 27.99739 | 119.56015 | 32201 ft | 436 kts | 191° |
| 2026-04-24 02:04 | 27.93678 | 119.56053 | 32199 ft | 435 kts | 191° |
| 2026-04-24 02:04 | 27.87616 | 119.56023 | 32194 ft | 435 kts | 192° |
| 2026-04-24 02:05 | 27.81562 | 119.55955 | 32186 ft | 435 kts | 192° |
| 2026-04-24 02:05 | 27.75509 | 119.55890 | 32195 ft | 435 kts | 192° |
| 2026-04-24 02:06 | 27.69452 | 119.55828 | 32186 ft | 435 kts | 191° |
| 2026-04-24 02:06 | 27.63397 | 119.55792 | 32188 ft | 436 kts | 191° |
| 2026-04-24 02:07 | 27.57327 | 119.55744 | 32194 ft | 438 kts | 192° |
| 2026-04-24 02:07 | 27.51235 | 119.55679 | 32190 ft | 439 kts | 191° |
| 2026-04-24 02:08 | 27.45117 | 119.55615 | 32182 ft | 439 kts | 191° |
| 2026-04-24 02:08 | 27.38993 | 119.55581 | 32178 ft | 440 kts | 191° |
| 2026-04-24 02:09 | 27.32865 | 119.55574 | 32186 ft | 441 kts | 191° |
| 2026-04-24 02:09 | 27.26725 | 119.55571 | 32184 ft | 441 kts | 191° |
| 2026-04-24 02:10 | 27.20576 | 119.55571 | 32183 ft | 442 kts | 190° |
| 2026-04-24 02:10 | 27.14435 | 119.55535 | 32183 ft | 442 kts | 191° |
| 2026-04-24 02:11 | 27.08285 | 119.55488 | 32182 ft | 443 kts | 191° |
| 2026-04-24 02:11 | 27.02116 | 119.55440 | 32184 ft | 443 kts | 191° |
| 2026-04-24 02:12 | 26.95941 | 119.55401 | 32182 ft | 444 kts | 191° |
| 2026-04-24 02:12 | 26.89752 | 119.55368 | 32183 ft | 445 kts | 190° |
| 2026-04-24 02:13 | 26.83618 | 119.55315 | 32180 ft | 445 kts | 190° |
| 2026-04-24 02:13 | 26.77406 | 119.55269 | 32173 ft | 447 kts | 190° |
| 2026-04-24 02:14 | 26.71188 | 119.55235 | 32173 ft | 447 kts | 190° |
| 2026-04-24 02:14 | 26.64953 | 119.55197 | 32172 ft | 447 kts | 190° |
| 2026-04-24 02:15 | 26.58728 | 119.55155 | 32171 ft | 447 kts | 190° |
| 2026-04-24 02:15 | 26.52498 | 119.55101 | 32175 ft | 449 kts | 190° |
| 2026-04-24 02:16 | 26.46248 | 119.55065 | 32172 ft | 450 kts | 189° |
| 2026-04-24 02:16 | 26.39989 | 119.55030 | 32174 ft | 451 kts | 189° |
| 2026-04-24 02:17 | 26.33717 | 119.54990 | 32173 ft | 450 kts | 190° |
| 2026-04-24 02:17 | 26.27462 | 119.54911 | 32172 ft | 450 kts | 190° |
| 2026-04-24 02:18 | 26.21276 | 119.54381 | 32174 ft | 438 kts | 199° |
| 2026-04-24 02:18 | 26.15445 | 119.52657 | 32173 ft | 432 kts | 204° |
| 2026-04-24 02:19 | 26.09711 | 119.50694 | 32170 ft | 430 kts | 205° |
| 2026-04-24 02:19 | 26.03986 | 119.48707 | 32177 ft | 431 kts | 205° |
| 2026-04-24 02:20 | 25.98260 | 119.46748 | 32172 ft | 431 kts | 205° |
| 2026-04-24 02:20 | 25.92513 | 119.44788 | 32172 ft | 434 kts | 204° |
| 2026-04-24 02:21 | 25.86728 | 119.42821 | 32174 ft | 435 kts | 204° |
| 2026-04-24 02:21 | 25.80936 | 119.40858 | 32175 ft | 435 kts | 204° |
| 2026-04-24 02:22 | 25.75382 | 119.38413 | 32172 ft | 425 kts | 214° |
| 2026-04-24 02:22 | 25.70699 | 119.34583 | 32174 ft | 415 kts | 227° |
| 2026-04-24 02:23 | 25.66661 | 119.30002 | 32172 ft | 415 kts | 230° |
| 2026-04-24 02:23 | 25.62726 | 119.25317 | 32172 ft | 416 kts | 230° |
| 2026-04-24 02:24 | 25.58774 | 119.20626 | 32170 ft | 417 kts | 230° |
| 2026-04-24 02:24 | 25.54802 | 119.15952 | 32163 ft | 416 kts | 230° |
| 2026-04-24 02:25 | 25.50824 | 119.11298 | 32165 ft | 416 kts | 230° |
| 2026-04-24 02:25 | 25.46844 | 119.06651 | 32163 ft | 417 kts | 230° |
| 2026-04-24 02:26 | 25.42860 | 119.01990 | 32164 ft | 417 kts | 230° |
| 2026-04-24 02:26 | 25.38870 | 118.97327 | 32166 ft | 417 kts | 230° |
| 2026-04-24 02:27 | 25.34921 | 118.92724 | 32159 ft | 416 kts | 230° |
| 2026-04-24 02:28 | 25.27104 | 118.83340 | 32160 ft | 416 kts | 230° |
| 2026-04-24 02:28 | 25.23192 | 118.78578 | 32158 ft | 418 kts | 231° |
| 2026-04-24 02:29 | 25.19275 | 118.73826 | 32148 ft | 418 kts | 230° |
| 2026-04-24 02:29 | 25.15357 | 118.69107 | 32146 ft | 417 kts | 230° |
| 2026-04-24 02:30 | 25.11438 | 118.64388 | 32152 ft | 417 kts | 230° |
| 2026-04-24 02:30 | 25.07537 | 118.59703 | 32148 ft | 418 kts | 230° |
| 2026-04-24 02:31 | 25.03505 | 118.55069 | 32141 ft | 419 kts | 229° |
| 2026-04-24 02:31 | 24.99441 | 118.50458 | 32142 ft | 420 kts | 229° |
| 2026-04-24 02:32 | 24.96036 | 118.46576 | 32149 ft | 420 kts | 229° |
| 2026-04-24 02:32 | 24.91317 | 118.41172 | 32147 ft | 422 kts | 229° |
| 2026-04-24 02:33 | 24.87931 | 118.37300 | 32145 ft | 422 kts | 229° |
| 2026-04-24 02:33 | 24.83855 | 118.32647 | 32148 ft | 423 kts | 229° |
| 2026-04-24 02:34 | 24.79776 | 118.27981 | 32147 ft | 423 kts | 229° |
| 2026-04-24 02:34 | 24.75684 | 118.23308 | 32143 ft | 424 kts | 229° |
| 2026-04-24 02:35 | 24.71582 | 118.18636 | 32145 ft | 425 kts | 229° |
| 2026-04-24 02:35 | 24.67468 | 118.13961 | 32140 ft | 426 kts | 229° |
| 2026-04-24 02:36 | 24.63338 | 118.09269 | 32150 ft | 427 kts | 229° |
| 2026-04-24 02:36 | 24.59202 | 118.04571 | 32146 ft | 428 kts | 229° |
| 2026-04-24 02:37 | 24.55065 | 117.99869 | 32149 ft | 428 kts | 230° |
| 2026-04-24 02:37 | 24.51060 | 117.95046 | 32146 ft | 427 kts | 231° |
| 2026-04-24 02:38 | 24.47100 | 117.90186 | 32146 ft | 427 kts | 231° |
| 2026-04-24 02:38 | 24.43112 | 117.85338 | 32141 ft | 428 kts | 231° |
| 2026-04-24 02:39 | 24.39109 | 117.80505 | 32151 ft | 428 kts | 230° |
| 2026-04-24 02:39 | 24.35102 | 117.75679 | 32146 ft | 428 kts | 231° |
| 2026-04-24 02:40 | 24.31083 | 117.70838 | 32142 ft | 429 kts | 231° |
| 2026-04-24 02:40 | 24.27059 | 117.66007 | 32146 ft | 429 kts | 231° |
| 2026-04-24 02:41 | 24.23036 | 117.61181 | 32144 ft | 429 kts | 231° |
| 2026-04-24 02:41 | 24.19012 | 117.56359 | 32140 ft | 429 kts | 230° |
| 2026-04-24 02:42 | 24.14982 | 117.51536 | 32147 ft | 429 kts | 230° |
| 2026-04-24 02:42 | 24.10654 | 117.47016 | 32159 ft | 430 kts | 226° |
| 2026-04-24 02:43 | 24.06201 | 117.42618 | 32145 ft | 431 kts | 226° |
| 2026-04-24 02:43 | 24.01730 | 117.38254 | 32140 ft | 431 kts | 225° |
| 2026-04-24 02:44 | 23.97269 | 117.33898 | 32147 ft | 430 kts | 225° |
| 2026-04-24 02:44 | 23.92784 | 117.29507 | 32146 ft | 435 kts | 225° |
| 2026-04-24 02:45 | 23.88265 | 117.25090 | 32144 ft | 435 kts | 225° |
| 2026-04-24 02:45 | 23.83756 | 117.20695 | 32145 ft | 434 kts | 225° |
| 2026-04-24 02:46 | 23.79286 | 117.16324 | 32144 ft | 435 kts | 225° |
| 2026-04-24 02:46 | 23.74793 | 117.11897 | 32146 ft | 434 kts | 227° |
| 2026-04-24 02:47 | 23.70583 | 117.07129 | 32141 ft | 433 kts | 230° |
| 2026-04-24 02:47 | 23.66525 | 117.02337 | 32150 ft | 433 kts | 230° |
| 2026-04-24 02:48 | 23.62395 | 116.97551 | 32143 ft | 433 kts | 229° |
| 2026-04-24 02:48 | 23.58232 | 116.92805 | 32141 ft | 433 kts | 229° |
| 2026-04-24 02:49 | 23.54052 | 116.88067 | 32146 ft | 434 kts | 229° |
| 2026-04-24 02:49 | 23.49874 | 116.83333 | 32141 ft | 433 kts | 229° |
| 2026-04-24 02:50 | 23.45694 | 116.78597 | 32141 ft | 434 kts | 229° |
| 2026-04-24 02:50 | 23.41120 | 116.74273 | 32149 ft | 437 kts | 223° |
| 2026-04-24 02:51 | 23.36314 | 116.70225 | 32143 ft | 438 kts | 221° |
| 2026-04-24 02:51 | 23.31460 | 116.66219 | 32144 ft | 438 kts | 221° |
| 2026-04-24 02:52 | 23.26595 | 116.62197 | 32150 ft | 439 kts | 221° |
| 2026-04-24 02:52 | 23.21736 | 116.58172 | 32142 ft | 439 kts | 221° |
| 2026-04-24 02:53 | 23.16870 | 116.54138 | 32041 ft | 442 kts | 221° |
| 2026-04-24 02:53 | 23.14406 | 116.52094 | 31845 ft | 451 kts | 221° |
| 2026-04-24 02:53 | 23.11897 | 116.50014 | 31633 ft | 455 kts | 221° |
| 2026-04-24 02:54 | 23.09382 | 116.47933 | 31444 ft | 456 kts | 221° |
| 2026-04-24 02:54 | 23.06852 | 116.45842 | 31230 ft | 457 kts | 221° |
| 2026-04-24 02:54 | 23.04316 | 116.43748 | 31028 ft | 458 kts | 221° |
| 2026-04-24 02:54 | 23.01779 | 116.41654 | 30826 ft | 459 kts | 221° |
| 2026-04-24 02:55 | 22.99232 | 116.39553 | 30607 ft | 459 kts | 220° |
| 2026-04-24 02:55 | 22.96691 | 116.37455 | 30481 ft | 461 kts | 220° |
| 2026-04-24 02:55 | 22.94135 | 116.35348 | 30353 ft | 461 kts | 220° |
| 2026-04-24 02:55 | 22.91582 | 116.33240 | 30222 ft | 462 kts | 220° |
| 2026-04-24 02:56 | 22.89028 | 116.31119 | 30096 ft | 463 kts | 220° |
| 2026-04-24 02:56 | 22.86489 | 116.29005 | 30048 ft | 464 kts | 220° |
| 2026-04-24 02:56 | 22.81365 | 116.24739 | 30047 ft | 465 kts | 220° |
| 2026-04-24 02:57 | 22.76221 | 116.20473 | 30048 ft | 466 kts | 220° |
| 2026-04-24 02:57 | 22.71104 | 116.16239 | 30047 ft | 467 kts | 220° |
| 2026-04-24 02:58 | 22.65889 | 116.11955 | 30046 ft | 468 kts | 220° |
| 2026-04-24 02:58 | 22.60732 | 116.07715 | 30043 ft | 469 kts | 220° |
| 2026-04-24 02:59 | 22.55533 | 116.03445 | 30049 ft | 470 kts | 220° |
| 2026-04-24 02:59 | 22.50797 | 115.98638 | 30034 ft | 466 kts | 232° |
| 2026-04-24 03:00 | 22.47501 | 115.92653 | 30041 ft | 465 kts | 248° |
| 2026-04-24 03:00 | 22.46017 | 115.85816 | 30040 ft | 467 kts | 262° |
| 2026-04-24 03:01 | 22.45534 | 115.78854 | 30031 ft | 468 kts | 264° |
| 2026-04-24 03:01 | 22.45170 | 115.71822 | 30042 ft | 468 kts | 264° |
| 2026-04-24 03:02 | 22.44782 | 115.64809 | 30022 ft | 467 kts | 264° |
| 2026-04-24 03:02 | 22.44362 | 115.57805 | 30033 ft | 467 kts | 264° |
| 2026-04-24 03:03 | 22.43930 | 115.50817 | 30025 ft | 466 kts | 264° |
| 2026-04-24 03:03 | 22.43494 | 115.43834 | 30027 ft | 465 kts | 264° |
| 2026-04-24 03:04 | 22.43058 | 115.36861 | 30023 ft | 465 kts | 264° |
| 2026-04-24 03:04 | 22.42621 | 115.29907 | 30026 ft | 464 kts | 264° |
| 2026-04-24 03:05 | 22.42180 | 115.22951 | 30023 ft | 463 kts | 264° |
| 2026-04-24 03:05 | 22.41738 | 115.16020 | 30023 ft | 462 kts | 264° |
| 2026-04-24 03:06 | 22.41293 | 115.09093 | 30024 ft | 462 kts | 264° |
| 2026-04-24 03:06 | 22.40846 | 115.02186 | 30013 ft | 459 kts | 264° |
| 2026-04-24 03:07 | 22.40400 | 114.95339 | 30015 ft | 456 kts | 264° |
| 2026-04-24 03:07 | 22.39954 | 114.88511 | 30001 ft | 455 kts | 264° |
| 2026-04-24 03:08 | 22.39278 | 114.78272 | 30002 ft | 455 kts | 264° |
| 2026-04-24 03:09 | 22.38824 | 114.71450 | 30008 ft | 455 kts | 264° |
| 2026-04-24 03:09 | 22.38366 | 114.64639 | 30022 ft | 455 kts | 264° |
| 2026-04-24 03:10 | 22.37914 | 114.57963 | 30007 ft | 455 kts | 264° |
| 2026-04-24 03:10 | 22.37453 | 114.51136 | 30009 ft | 455 kts | 264° |
| 2026-04-24 03:11 | 22.36990 | 114.44334 | 30014 ft | 455 kts | 264° |
| 2026-04-24 03:11 | 22.36519 | 114.37498 | 30001 ft | 456 kts | 264° |
| 2026-04-24 03:12 | 22.36046 | 114.30671 | 30007 ft | 456 kts | 264° |
| 2026-04-24 03:12 | 22.35577 | 114.23876 | 29582 ft | 446 kts | 264° |
| 2026-04-24 03:12 | 22.35343 | 114.20544 | 28539 ft | 448 kts | 264° |
| 2026-04-24 03:13 | 22.35105 | 114.17170 | 27426 ft | 452 kts | 264° |
| 2026-04-24 03:13 | 22.34868 | 114.13801 | 26381 ft | 444 kts | 264° |
| 2026-04-24 03:13 | 22.34637 | 114.10508 | 24932 ft | 437 kts | 264° |
| 2026-04-24 03:13 | 22.34410 | 114.07308 | 24154 ft | 416 kts | 264° |
| 2026-04-24 03:14 | 22.34198 | 114.04300 | 23521 ft | 396 kts | 264° |
| 2026-04-24 03:14 | 22.33986 | 114.01316 | 22845 ft | 400 kts | 264° |
| 2026-04-24 03:14 | 22.33708 | 113.98367 | 22160 ft | 398 kts | 259° |
| 2026-04-24 03:14 | 22.32948 | 113.95510 | 21480 ft | 395 kts | 246° |
| 2026-04-24 03:15 | 22.31520 | 113.92983 | 20782 ft | 396 kts | 232° |
| 2026-04-24 03:15 | 22.29502 | 113.90966 | 20089 ft | 399 kts | 218° |
| 2026-04-24 03:15 | 22.27143 | 113.89373 | 19361 ft | 399 kts | 216° |
| 2026-04-24 03:15 | 22.24902 | 113.87605 | 18634 ft | 398 kts | 220° |
| 2026-04-24 03:16 | 22.22737 | 113.85748 | 17898 ft | 397 kts | 221° |
| 2026-04-24 03:16 | 22.20572 | 113.83884 | 17157 ft | 398 kts | 220° |
| 2026-04-24 03:16 | 22.18411 | 113.82029 | 16402 ft | 397 kts | 220° |
| 2026-04-24 03:16 | 22.16296 | 113.80210 | 15654 ft | 394 kts | 220° |
| 2026-04-24 03:17 | 22.14134 | 113.78350 | 14885 ft | 391 kts | 220° |
| 2026-04-24 03:17 | 22.12045 | 113.76552 | 14134 ft | 387 kts | 220° |
| 2026-04-24 03:17 | 22.09949 | 113.74745 | 13382 ft | 384 kts | 220° |
| 2026-04-24 03:17 | 22.07865 | 113.72951 | 12624 ft | 381 kts | 220° |
| 2026-04-24 03:18 | 22.05808 | 113.71178 | 12065 ft | 372 kts | 220° |
| 2026-04-24 03:18 | 22.03843 | 113.69488 | 11941 ft | 353 kts | 220° |
| 2026-04-24 03:18 | 22.01978 | 113.67886 | 11822 ft | 335 kts | 220° |
| 2026-04-24 03:18 | 22.00172 | 113.66323 | 11445 ft | 328 kts | 220° |
| 2026-04-24 03:19 | 21.98448 | 113.64813 | 10822 ft | 312 kts | 220° |
| 2026-04-24 03:19 | 21.96795 | 113.63366 | 10029 ft | 302 kts | 220° |
| 2026-04-24 03:19 | 21.95187 | 113.61959 | 9346 ft | 291 kts | 220° |
| 2026-04-24 03:19 | 21.94162 | 113.61063 | 8987 ft | 282 kts | 220° |
| 2026-04-24 03:20 | 21.92667 | 113.59780 | 8427 ft | 271 kts | 217° |
| 2026-04-24 03:20 | 21.91042 | 113.58865 | 7871 ft | 263 kts | 199° |
| 2026-04-24 03:20 | 21.89253 | 113.58629 | 7307 ft | 259 kts | 179° |
| 2026-04-24 03:20 | 21.87512 | 113.59108 | 6724 ft | 257 kts | 158° |
| 2026-04-24 03:21 | 21.86067 | 113.60221 | 6179 ft | 257 kts | 137° |
| 2026-04-24 03:21 | 21.85101 | 113.61810 | 5767 ft | 253 kts | 116° |
| 2026-04-24 03:21 | 21.84722 | 113.63607 | 5574 ft | 247 kts | 95° |
| 2026-04-24 03:21 | 21.84922 | 113.65419 | 5444 ft | 242 kts | 75° |
| 2026-04-24 03:22 | 21.85650 | 113.67009 | 5344 ft | 233 kts | 54° |
| 2026-04-24 03:22 | 21.86792 | 113.68195 | 5224 ft | 224 kts | 32° |
| 2026-04-24 03:22 | 21.88244 | 113.68630 | 5017 ft | 215 kts | 0° |
| 2026-04-24 03:22 | 21.89707 | 113.68421 | 4891 ft | 214 kts | 342° |
| 2026-04-24 03:23 | 21.91120 | 113.67910 | 4733 ft | 214 kts | 338° |
| 2026-04-24 03:23 | 21.92529 | 113.67388 | 4461 ft | 213 kts | 340° |
| 2026-04-24 03:23 | 21.93918 | 113.66892 | 4156 ft | 211 kts | 340° |
| 2026-04-24 03:23 | 21.95296 | 113.66383 | 3846 ft | 208 kts | 340° |
| 2026-04-24 03:24 | 21.96661 | 113.65880 | 3556 ft | 206 kts | 341° |
| 2026-04-24 03:24 | 21.98014 | 113.65385 | 3266 ft | 204 kts | 341° |
| 2026-04-24 03:24 | 21.99346 | 113.64893 | 2997 ft | 201 kts | 340° |
| 2026-04-24 03:24 | 22.00641 | 113.64415 | 2738 ft | 198 kts | 340° |
| 2026-04-24 03:25 | 22.01931 | 113.63942 | 2476 ft | 194 kts | 340° |
| 2026-04-24 03:25 | 22.03194 | 113.63474 | 2223 ft | 190 kts | 342° |
| 2026-04-24 03:25 | 22.04431 | 113.63018 | 1974 ft | 185 kts | 342° |
| 2026-04-24 03:25 | 22.05628 | 113.62576 | 1724 ft | 180 kts | 342° |
| 2026-04-24 03:26 | 22.06804 | 113.62141 | 1482 ft | 178 kts | 342° |
| 2026-04-24 03:26 | 22.07981 | 113.61707 | 1265 ft | 178 kts | 342° |
| 2026-04-24 03:26 | 22.09149 | 113.61276 | 1016 ft | 177 kts | 342° |
| 2026-04-24 03:26 | 22.10295 | 113.60852 | 804 ft | 169 kts | 342° |
| 2026-04-24 03:27 | 22.11370 | 113.60456 | 581 ft | 158 kts | 342° |
| 2026-04-24 03:27 | 22.12365 | 113.60090 | 373 ft | 145 kts | 343° |
| 2026-04-24 03:27 | 22.13266 | 113.59759 | 183 ft | 134 kts | 342° |
| 2026-04-24 03:27 | 22.14060 | 113.59465 | 43 ft | 127 kts | 342° |
| 2026-04-24 03:28 | 22.14763 | 113.59209 | 35 ft | 90 kts | 341° |
| 2026-04-24 03:28 | 22.15185 | 113.59054 | 36 ft | 45 kts | 341° |
| 2026-04-24 03:28 | 22.15443 | 113.58960 | 34 ft | 43 kts | 341° |
| 2026-04-24 03:28 | 22.15719 | 113.58858 | 34 ft | 41 kts | 341° |
| 2026-04-24 03:29 | 22.15978 | 113.58764 | 36 ft | 40 kts | 341° |
| 2026-04-24 03:29 | 22.16172 | 113.58686 | 35 ft | 24 kts | 322° |
| 2026-04-24 03:29 | 22.16222 | 113.58518 | 35 ft | 25 kts | 282° |
| 2026-04-24 03:29 | 22.16258 | 113.58329 | 35 ft | 23 kts | 274° |
| 2026-04-24 03:30 | 22.16223 | 113.58188 | 35 ft | 21 kts | 251° |
| 2026-04-24 03:30 | 22.16173 | 113.58032 | 35 ft | 24 kts | 251° |
| 2026-04-24 03:30 | 22.16122 | 113.57873 | 35 ft | 26 kts | 250° |
| 2026-04-24 03:30 | 22.16059 | 113.57762 | 35 ft | 13 kts | 211° |
| 2026-04-24 03:31 | 22.15960 | 113.57730 | 35 ft | 16 kts | 195° |
| 2026-04-24 03:31 | 22.15834 | 113.57693 | 35 ft | 20 kts | 195° |
| 2026-04-24 03:31 | 22.15696 | 113.57632 | 35 ft | 22 kts | 213° |
| 2026-04-24 03:31 | 22.15603 | 113.57543 | 35 ft | 5 kts | 242° |
| 2026-04-24 03:32 | 22.15611 | 113.57508 | 34 ft | 6 kts | 302° |
| 2026-04-24 03:32 | 22.15636 | 113.57485 | 35 ft | 2 kts | 325° |
| 2026-04-24 03:32 | 22.15648 | 113.57476 | 35 ft | 0 kts | 326° |